WLF712 EGLL-EKCH
Flight info
| Callsign | WLF712 |
|---|---|
| Flight time | 1h 27m |
| Altitude | 39000 |
| Route | BPK Q295 SOMVA DCT MAVAS DCT ROCZO DCT DOSUR P729 TUDLO |
| Aircraft | B737/M-SDE2E3FGHIRWXY/LB1 |
Departure
| Time | 2026-05-04 16:35 |
|---|---|
| Airport | London Heathrow Airport (EGLL) |
Arrival
| Time | 2026-05-04 18:03 |
|---|---|
| Airport | Copenhagen Kastrup Airport (EKCH) |
| Time | Latitude | Longitude | Altitude | Speed | Heading |
|---|---|---|---|---|---|
| 2026-05-04 15:57 | 51.47271 | -0.48584 | 85 ft | 0 kts | 269° |
| 2026-05-04 16:22 | 51.47271 | -0.48520 | 85 ft | 3 kts | 269° |
| 2026-05-04 16:23 | 51.47227 | -0.48473 | 85 ft | 1 kts | 359° |
| 2026-05-04 16:26 | 51.47368 | -0.48474 | 85 ft | 11 kts | 359° |
| 2026-05-04 16:26 | 51.47560 | -0.48468 | 85 ft | 5 kts | 18° |
| 2026-05-04 16:27 | 51.47569 | -0.48462 | 85 ft | 0 kts | 20° |
| 2026-05-04 16:28 | 51.47575 | -0.48217 | 89 ft | 13 kts | 86° |
| 2026-05-04 16:28 | 51.47580 | -0.47660 | 87 ft | 18 kts | 89° |
| 2026-05-04 16:29 | 51.47583 | -0.46922 | 85 ft | 15 kts | 90° |
| 2026-05-04 16:30 | 51.47593 | -0.46409 | 85 ft | 18 kts | 90° |
| 2026-05-04 16:31 | 51.47595 | -0.45959 | 89 ft | 19 kts | 89° |
| 2026-05-04 16:31 | 51.47597 | -0.45339 | 85 ft | 18 kts | 90° |
| 2026-05-04 16:32 | 51.47599 | -0.44778 | 88 ft | 17 kts | 89° |
| 2026-05-04 16:33 | 51.47600 | -0.44348 | 85 ft | 22 kts | 92° |
| 2026-05-04 16:33 | 51.47593 | -0.43870 | 85 ft | 21 kts | 89° |
| 2026-05-04 16:34 | 51.47639 | -0.43492 | 88 ft | 15 kts | 49° |
| 2026-05-04 16:34 | 51.47706 | -0.43420 | 88 ft | 10 kts | 355° |
| 2026-05-04 16:35 | 51.47765 | -0.44310 | 85 ft | 109 kts | 270° |
| 2026-05-04 16:35 | 51.47555 | -0.50141 | 1882 ft | 192 kts | 268° |
| 2026-05-04 16:36 | 51.47529 | -0.52268 | 3019 ft | 194 kts | 271° |
| 2026-05-04 16:36 | 51.48342 | -0.56911 | 4225 ft | 241 kts | 299° |
| 2026-05-04 16:37 | 51.50031 | -0.61961 | 5644 ft | 268 kts | 297° |
| 2026-05-04 16:37 | 51.51132 | -0.64373 | 5963 ft | 271 kts | 320° |
| 2026-05-04 16:37 | 51.54725 | -0.65661 | 6001 ft | 276 kts | 14° |
| 2026-05-04 16:38 | 51.57644 | -0.62014 | 6006 ft | 271 kts | 54° |
| 2026-05-04 16:39 | 51.61091 | -0.54499 | 5996 ft | 280 kts | 54° |
| 2026-05-04 16:39 | 51.63241 | -0.49316 | 6005 ft | 278 kts | 63° |
| 2026-05-04 16:40 | 51.64924 | -0.43728 | 5997 ft | 277 kts | 65° |
| 2026-05-04 16:40 | 51.66600 | -0.38139 | 6195 ft | 280 kts | 65° |
| 2026-05-04 16:41 | 51.68347 | -0.32409 | 8191 ft | 289 kts | 64° |
| 2026-05-04 16:41 | 51.71097 | -0.23440 | 10862 ft | 317 kts | 64° |
| 2026-05-04 16:42 | 51.74257 | -0.13137 | 12967 ft | 354 kts | 64° |
| 2026-05-04 16:43 | 51.75554 | -0.05460 | 14824 ft | 360 kts | 84° |
| 2026-05-04 16:43 | 51.76138 | 0.02627 | 16732 ft | 366 kts | 84° |
| 2026-05-04 16:43 | 51.76451 | 0.06738 | 17633 ft | 371 kts | 85° |
| 2026-05-04 16:44 | 51.77809 | 0.23677 | 20698 ft | 393 kts | 85° |
| 2026-05-04 16:45 | 51.78501 | 0.32554 | 22149 ft | 404 kts | 84° |
| 2026-05-04 16:46 | 51.79613 | 0.46344 | 24136 ft | 420 kts | 84° |
| 2026-05-04 16:46 | 51.80363 | 0.55775 | 25466 ft | 425 kts | 85° |
| 2026-05-04 16:47 | 51.81229 | 0.65291 | 26625 ft | 434 kts | 77° |
| 2026-05-04 16:47 | 51.83451 | 0.74476 | 27712 ft | 443 kts | 67° |
| 2026-05-04 16:48 | 51.87178 | 0.88340 | 29319 ft | 453 kts | 69° |
| 2026-05-04 16:48 | 51.88393 | 0.93065 | 29829 ft | 456 kts | 69° |
| 2026-05-04 16:49 | 51.90829 | 1.02623 | 30671 ft | 463 kts | 69° |
| 2026-05-04 16:49 | 51.93299 | 1.12331 | 31402 ft | 468 kts | 69° |
| 2026-05-04 16:50 | 51.95788 | 1.22143 | 32134 ft | 472 kts | 69° |
| 2026-05-04 16:50 | 51.98272 | 1.31963 | 33131 ft | 469 kts | 69° |
| 2026-05-04 16:51 | 52.00737 | 1.41751 | 33934 ft | 469 kts | 70° |
| 2026-05-04 16:51 | 52.01967 | 1.46653 | 34293 ft | 469 kts | 70° |
| 2026-05-04 16:51 | 52.04419 | 1.56465 | 34935 ft | 469 kts | 69° |
| 2026-05-04 16:52 | 52.06867 | 1.66297 | 35608 ft | 468 kts | 69° |
| 2026-05-04 16:52 | 52.08082 | 1.71196 | 35962 ft | 467 kts | 69° |
| 2026-05-04 16:53 | 52.10099 | 1.79344 | 36456 ft | 467 kts | 69° |
| 2026-05-04 16:53 | 52.13672 | 1.93862 | 37354 ft | 466 kts | 69° |
| 2026-05-04 16:54 | 52.14874 | 1.98763 | 37629 ft | 466 kts | 70° |
| 2026-05-04 16:55 | 52.19670 | 2.18446 | 38737 ft | 466 kts | 70° |
| 2026-05-04 16:55 | 52.22050 | 2.28280 | 38992 ft | 470 kts | 70° |
| 2026-05-04 16:56 | 52.27981 | 2.52976 | 38993 ft | 462 kts | 69° |
| 2026-05-04 16:57 | 52.31345 | 2.67571 | 38997 ft | 458 kts | 73° |
| 2026-05-04 16:58 | 52.34820 | 2.87576 | 39006 ft | 458 kts | 75° |
| 2026-05-04 17:00 | 52.40398 | 3.17743 | 39007 ft | 468 kts | 65° |
| 2026-05-04 17:01 | 52.49368 | 3.40219 | 39019 ft | 471 kts | 56° |
| 2026-05-04 17:02 | 52.56521 | 3.57908 | 39008 ft | 463 kts | 57° |
| 2026-05-04 17:03 | 52.61821 | 3.71207 | 39012 ft | 465 kts | 57° |
| 2026-05-04 17:03 | 52.67144 | 3.84624 | 39001 ft | 468 kts | 57° |
| 2026-05-04 17:04 | 52.74258 | 4.02666 | 38986 ft | 470 kts | 57° |
| 2026-05-04 17:05 | 52.81368 | 4.20819 | 38996 ft | 471 kts | 57° |
| 2026-05-04 17:06 | 52.86676 | 4.34468 | 38998 ft | 470 kts | 57° |
| 2026-05-04 17:07 | 52.91377 | 4.46609 | 39011 ft | 470 kts | 57° |
| 2026-05-04 17:07 | 52.95491 | 4.57281 | 39014 ft | 470 kts | 58° |
| 2026-05-04 17:08 | 53.00746 | 4.70982 | 39020 ft | 469 kts | 58° |
| 2026-05-04 17:09 | 53.04235 | 4.80121 | 39020 ft | 468 kts | 58° |
| 2026-05-04 17:09 | 53.07690 | 4.89202 | 39022 ft | 468 kts | 58° |
| 2026-05-04 17:10 | 53.16339 | 5.12084 | 39020 ft | 467 kts | 58° |
| 2026-05-04 17:11 | 53.19783 | 5.21258 | 39025 ft | 467 kts | 58° |
| 2026-05-04 17:12 | 53.24943 | 5.35061 | 39023 ft | 468 kts | 58° |
| 2026-05-04 17:13 | 53.33548 | 5.58237 | 39026 ft | 470 kts | 58° |
| 2026-05-04 17:14 | 53.40413 | 5.76893 | 39023 ft | 471 kts | 58° |
| 2026-05-04 17:15 | 53.45795 | 5.90689 | 39023 ft | 472 kts | 54° |
| 2026-05-04 17:16 | 53.53461 | 6.08607 | 39015 ft | 473 kts | 54° |
| 2026-05-04 17:17 | 53.61019 | 6.26713 | 39008 ft | 473 kts | 54° |
| 2026-05-04 17:18 | 53.68530 | 6.44902 | 39017 ft | 473 kts | 54° |
| 2026-05-04 17:19 | 53.76014 | 6.63151 | 39013 ft | 472 kts | 55° |
| 2026-05-04 17:20 | 53.83456 | 6.81435 | 39009 ft | 471 kts | 54° |
| 2026-05-04 17:20 | 53.89014 | 6.95161 | 39006 ft | 471 kts | 54° |
| 2026-05-04 17:21 | 53.96377 | 7.13485 | 39019 ft | 471 kts | 55° |
| 2026-05-04 17:22 | 54.00061 | 7.22704 | 39018 ft | 472 kts | 55° |
| 2026-05-04 17:23 | 54.07426 | 7.41214 | 39009 ft | 473 kts | 55° |
| 2026-05-04 17:24 | 54.12930 | 7.55144 | 39015 ft | 472 kts | 55° |
| 2026-05-04 17:25 | 54.20241 | 7.73774 | 39012 ft | 472 kts | 55° |
| 2026-05-04 17:26 | 54.27522 | 7.92467 | 39016 ft | 473 kts | 55° |
| 2026-05-04 17:27 | 54.36602 | 8.15972 | 39004 ft | 473 kts | 55° |
| 2026-05-04 17:28 | 54.43503 | 8.35177 | 39012 ft | 473 kts | 60° |
| 2026-05-04 17:29 | 54.53040 | 8.64921 | 38999 ft | 473 kts | 60° |
| 2026-05-04 17:31 | 54.61049 | 8.89736 | 39003 ft | 474 kts | 60° |
| 2026-05-04 17:31 | 54.65853 | 9.04750 | 38552 ft | 481 kts | 60° |
| 2026-05-04 17:32 | 54.69060 | 9.14825 | 37721 ft | 476 kts | 60° |
| 2026-05-04 17:33 | 54.73804 | 9.29820 | 36295 ft | 476 kts | 60° |
| 2026-05-04 17:33 | 54.75388 | 9.34847 | 35836 ft | 476 kts | 60° |
| 2026-05-04 17:34 | 54.80144 | 9.49994 | 34533 ft | 479 kts | 60° |
| 2026-05-04 17:34 | 54.81731 | 9.55070 | 34122 ft | 480 kts | 60° |
| 2026-05-04 17:35 | 54.86524 | 9.70467 | 32676 ft | 486 kts | 60° |
| 2026-05-04 17:35 | 54.89743 | 9.80862 | 31788 ft | 484 kts | 60° |
| 2026-05-04 17:35 | 54.91330 | 9.86009 | 31313 ft | 486 kts | 60° |
| 2026-05-04 17:36 | 54.92946 | 9.91256 | 30876 ft | 496 kts | 60° |
| 2026-05-04 17:36 | 54.94582 | 9.96579 | 30400 ft | 501 kts | 60° |
| 2026-05-04 17:36 | 54.96219 | 10.01917 | 29759 ft | 501 kts | 60° |
| 2026-05-04 17:36 | 54.97858 | 10.07278 | 29071 ft | 500 kts | 60° |
| 2026-05-04 17:37 | 54.99486 | 10.12617 | 28424 ft | 499 kts | 60° |
| 2026-05-04 17:37 | 55.01106 | 10.17939 | 27773 ft | 497 kts | 60° |
| 2026-05-04 17:37 | 55.02722 | 10.23264 | 27131 ft | 497 kts | 61° |
| 2026-05-04 17:37 | 55.04346 | 10.28552 | 26511 ft | 496 kts | 60° |
| 2026-05-04 17:38 | 55.05945 | 10.33885 | 25900 ft | 494 kts | 60° |
| 2026-05-04 17:38 | 55.07534 | 10.39177 | 25312 ft | 492 kts | 61° |
| 2026-05-04 17:38 | 55.09097 | 10.44402 | 24760 ft | 487 kts | 61° |
| 2026-05-04 17:38 | 55.10675 | 10.49649 | 24173 ft | 477 kts | 61° |
| 2026-05-04 17:39 | 55.13206 | 10.58087 | 23185 ft | 470 kts | 61° |
| 2026-05-04 17:39 | 55.15207 | 10.64780 | 22321 ft | 467 kts | 61° |
| 2026-05-04 17:39 | 55.16703 | 10.69797 | 21690 ft | 465 kts | 61° |
| 2026-05-04 17:40 | 55.18192 | 10.74800 | 21065 ft | 462 kts | 61° |
| 2026-05-04 17:40 | 55.19669 | 10.79781 | 20486 ft | 459 kts | 61° |
| 2026-05-04 17:40 | 55.21127 | 10.84711 | 19907 ft | 455 kts | 61° |
| 2026-05-04 17:40 | 55.22109 | 10.88034 | 19520 ft | 453 kts | 61° |
| 2026-05-04 17:41 | 55.23550 | 10.92921 | 18969 ft | 450 kts | 61° |
| 2026-05-04 17:41 | 55.24977 | 10.97766 | 18428 ft | 447 kts | 61° |
| 2026-05-04 17:41 | 55.26396 | 11.02596 | 17819 ft | 441 kts | 61° |
| 2026-05-04 17:41 | 55.27764 | 11.07273 | 17195 ft | 423 kts | 61° |
| 2026-05-04 17:42 | 55.29063 | 11.11719 | 16599 ft | 407 kts | 61° |
| 2026-05-04 17:42 | 55.30326 | 11.16047 | 16002 ft | 392 kts | 61° |
| 2026-05-04 17:42 | 55.31554 | 11.20260 | 15426 ft | 385 kts | 61° |
| 2026-05-04 17:42 | 55.32766 | 11.24419 | 14861 ft | 378 kts | 61° |
| 2026-05-04 17:43 | 55.33948 | 11.28484 | 14307 ft | 371 kts | 61° |
| 2026-05-04 17:43 | 55.35116 | 11.32511 | 13757 ft | 366 kts | 61° |
| 2026-05-04 17:43 | 55.36263 | 11.36469 | 13200 ft | 361 kts | 61° |
| 2026-05-04 17:43 | 55.37386 | 11.40354 | 12836 ft | 350 kts | 61° |
| 2026-05-04 17:44 | 55.38467 | 11.44106 | 12626 ft | 338 kts | 61° |
| 2026-05-04 17:44 | 55.39510 | 11.47731 | 12441 ft | 327 kts | 61° |
| 2026-05-04 17:44 | 55.40532 | 11.51280 | 12255 ft | 323 kts | 61° |
| 2026-05-04 17:44 | 55.41544 | 11.54799 | 12088 ft | 322 kts | 61° |
| 2026-05-04 17:45 | 55.42556 | 11.58322 | 11984 ft | 323 kts | 61° |
| 2026-05-04 17:45 | 55.43574 | 11.61852 | 11954 ft | 321 kts | 59° |
| 2026-05-04 17:45 | 55.44929 | 11.64890 | 11958 ft | 315 kts | 39° |
| 2026-05-04 17:45 | 55.46572 | 11.67468 | 11955 ft | 317 kts | 37° |
| 2026-05-04 17:46 | 55.48238 | 11.70007 | 11949 ft | 317 kts | 37° |
| 2026-05-04 17:46 | 55.49901 | 11.72552 | 11945 ft | 316 kts | 37° |
| 2026-05-04 17:46 | 55.51556 | 11.75104 | 11861 ft | 317 kts | 37° |
| 2026-05-04 17:46 | 55.53221 | 11.77688 | 11453 ft | 319 kts | 38° |
| 2026-05-04 17:47 | 55.54879 | 11.80276 | 11075 ft | 316 kts | 38° |
| 2026-05-04 17:47 | 55.56506 | 11.82830 | 10702 ft | 310 kts | 38° |
| 2026-05-04 17:47 | 55.58099 | 11.85332 | 10395 ft | 304 kts | 38° |
| 2026-05-04 17:47 | 55.59674 | 11.87813 | 10108 ft | 302 kts | 38° |
| 2026-05-04 17:48 | 55.61260 | 11.90224 | 9801 ft | 298 kts | 30° |
| 2026-05-04 17:48 | 55.63120 | 11.91629 | 9520 ft | 289 kts | 8° |
| 2026-05-04 17:48 | 55.65098 | 11.92262 | 9272 ft | 289 kts | 5° |
| 2026-05-04 17:48 | 55.67087 | 11.92861 | 8997 ft | 288 kts | 5° |
| 2026-05-04 17:49 | 55.69023 | 11.93439 | 8721 ft | 276 kts | 5° |
| 2026-05-04 17:49 | 55.70879 | 11.93997 | 8449 ft | 266 kts | 5° |
| 2026-05-04 17:49 | 55.72683 | 11.94542 | 8203 ft | 261 kts | 5° |
| 2026-05-04 17:49 | 55.74472 | 11.95087 | 8008 ft | 260 kts | 5° |
| 2026-05-04 17:50 | 55.76256 | 11.95634 | 7961 ft | 260 kts | 5° |
| 2026-05-04 17:50 | 55.78043 | 11.96184 | 7945 ft | 261 kts | 5° |
| 2026-05-04 17:50 | 55.79823 | 11.96770 | 7942 ft | 261 kts | 10° |
| 2026-05-04 17:50 | 55.81431 | 11.98318 | 7950 ft | 270 kts | 38° |
| 2026-05-04 17:51 | 55.82762 | 12.00726 | 7933 ft | 275 kts | 44° |
| 2026-05-04 17:51 | 55.84058 | 12.03258 | 7635 ft | 278 kts | 44° |
| 2026-05-04 17:51 | 55.85335 | 12.05795 | 7340 ft | 273 kts | 45° |
| 2026-05-04 17:51 | 55.86588 | 12.08291 | 7033 ft | 267 kts | 45° |
| 2026-05-04 17:52 | 55.87825 | 12.10757 | 6728 ft | 267 kts | 45° |
| 2026-05-04 17:52 | 55.88819 | 12.13543 | 6404 ft | 272 kts | 73° |
| 2026-05-04 17:52 | 55.88804 | 12.16864 | 6100 ft | 270 kts | 110° |
| 2026-05-04 17:52 | 55.87849 | 12.19673 | 5830 ft | 264 kts | 128° |
| 2026-05-04 17:53 | 55.86828 | 12.22389 | 5516 ft | 265 kts | 124° |
| 2026-05-04 17:53 | 55.85882 | 12.25196 | 5213 ft | 263 kts | 121° |
| 2026-05-04 17:53 | 55.84990 | 12.28039 | 4910 ft | 263 kts | 120° |
| 2026-05-04 17:53 | 55.84130 | 12.30915 | 4608 ft | 265 kts | 118° |
| 2026-05-04 17:54 | 55.83282 | 12.33837 | 4291 ft | 266 kts | 117° |
| 2026-05-04 17:54 | 55.82456 | 12.36748 | 4041 ft | 261 kts | 117° |
| 2026-05-04 17:54 | 55.81665 | 12.39567 | 3991 ft | 255 kts | 116° |
| 2026-05-04 17:54 | 55.80884 | 12.42374 | 3998 ft | 254 kts | 117° |
| 2026-05-04 17:55 | 55.80100 | 12.45198 | 3992 ft | 255 kts | 117° |
| 2026-05-04 17:55 | 55.79339 | 12.48071 | 3995 ft | 260 kts | 109° |
| 2026-05-04 17:55 | 55.79069 | 12.51233 | 4014 ft | 260 kts | 91° |
| 2026-05-04 17:55 | 55.79003 | 12.54457 | 3999 ft | 262 kts | 90° |
| 2026-05-04 17:56 | 55.78960 | 12.57701 | 3985 ft | 262 kts | 90° |
| 2026-05-04 17:56 | 55.78922 | 12.60908 | 3988 ft | 259 kts | 90° |
| 2026-05-04 17:56 | 55.78886 | 12.64101 | 4005 ft | 259 kts | 90° |
| 2026-05-04 17:56 | 55.78850 | 12.67293 | 3993 ft | 259 kts | 90° |
| 2026-05-04 17:57 | 55.78812 | 12.70475 | 3980 ft | 253 kts | 90° |
| 2026-05-04 17:57 | 55.78773 | 12.73490 | 3968 ft | 236 kts | 90° |
| 2026-05-04 17:57 | 55.78737 | 12.76328 | 3953 ft | 228 kts | 90° |
| 2026-05-04 17:57 | 55.78696 | 12.79180 | 3703 ft | 232 kts | 90° |
| 2026-05-04 17:58 | 55.78590 | 12.81999 | 3427 ft | 227 kts | 103° |
| 2026-05-04 17:58 | 55.77838 | 12.84384 | 3167 ft | 221 kts | 139° |
| 2026-05-04 17:58 | 55.76474 | 12.85409 | 3061 ft | 215 kts | 185° |
| 2026-05-04 17:58 | 55.75124 | 12.84532 | 3066 ft | 207 kts | 221° |
| 2026-05-04 17:59 | 55.73975 | 12.82967 | 3021 ft | 209 kts | 221° |
| 2026-05-04 17:59 | 55.72848 | 12.81394 | 2992 ft | 198 kts | 223° |
| 2026-05-04 17:59 | 55.70945 | 12.78521 | 2974 ft | 166 kts | 226° |
| 2026-05-04 18:00 | 55.69982 | 12.77293 | 2572 ft | 180 kts | 215° |
| 2026-05-04 18:00 | 55.68890 | 12.76285 | 2338 ft | 175 kts | 210° |
| 2026-05-04 18:00 | 55.67853 | 12.75171 | 1856 ft | 174 kts | 223° |
| 2026-05-04 18:00 | 55.66973 | 12.73749 | 1473 ft | 168 kts | 229° |
| 2026-05-04 18:01 | 55.66170 | 12.72293 | 1108 ft | 163 kts | 228° |
| 2026-05-04 18:01 | 55.65331 | 12.71046 | 852 ft | 147 kts | 223° |
| 2026-05-04 18:01 | 55.64583 | 12.69947 | 613 ft | 134 kts | 223° |
| 2026-05-04 18:02 | 55.63215 | 12.67806 | 236 ft | 130 kts | 225° |
| 2026-05-04 18:02 | 55.62548 | 12.66773 | 70 ft | 125 kts | 225° |
| 2026-05-04 18:02 | 55.61934 | 12.65817 | 23 ft | 103 kts | 222° |
| 2026-05-04 18:02 | 55.61499 | 12.65150 | 22 ft | 63 kts | 221° |
| 2026-05-04 18:03 | 55.61300 | 12.64769 | 27 ft | 31 kts | 239° |
| 2026-05-04 18:03 | 55.61233 | 12.64494 | 25 ft | 20 kts | 252° |
| 2026-05-04 18:03 | 55.61193 | 12.64285 | 23 ft | 17 kts | 252° |
| 2026-05-04 18:03 | 55.61210 | 12.64134 | 25 ft | 7 kts | 325° |
| 2026-05-04 18:04 | 55.61219 | 12.64125 | 23 ft | 0 kts | 333° |
| 2026-05-04 18:04 | 55.61225 | 12.64121 | 24 ft | 3 kts | 333° |
| 2026-05-04 18:04 | 55.61353 | 12.64194 | 26 ft | 18 kts | 33° |
| 2026-05-04 18:05 | 55.61465 | 12.64322 | 23 ft | 19 kts | 33° |
| 2026-05-04 18:05 | 55.61575 | 12.64448 | 25 ft | 19 kts | 33° |
| 2026-05-04 18:05 | 55.61682 | 12.64572 | 23 ft | 18 kts | 33° |
| 2026-05-04 18:05 | 55.61781 | 12.64684 | 23 ft | 11 kts | 33° |
| 2026-05-04 18:06 | 55.61905 | 12.64827 | 24 ft | 10 kts | 33° |
| 2026-05-04 18:06 | 55.61964 | 12.64896 | 24 ft | 10 kts | 32° |
| 2026-05-04 18:06 | 55.62022 | 12.64962 | 23 ft | 10 kts | 34° |
| 2026-05-04 18:07 | 55.62060 | 12.65006 | 25 ft | 0 kts | 33° |
| 2026-05-04 18:07 | 55.62064 | 12.65011 | 23 ft | 2 kts | 33° |
| 2026-05-04 18:07 | 55.62086 | 12.65036 | 27 ft | 4 kts | 33° |
| 2026-05-04 18:07 | 55.62110 | 12.65065 | 23 ft | 4 kts | 33° |
| 2026-05-04 18:08 | 55.62134 | 12.65093 | 23 ft | 4 kts | 34° |
| 2026-05-04 18:08 | 55.62158 | 12.65120 | 23 ft | 4 kts | 32° |
| 2026-05-04 18:08 | 55.62181 | 12.65146 | 23 ft | 4 kts | 32° |
| 2026-05-04 18:08 | 55.62207 | 12.65175 | 23 ft | 6 kts | 32° |
| 2026-05-04 18:09 | 55.62334 | 12.65205 | 26 ft | 13 kts | 359° |
| 2026-05-04 18:09 | 55.62526 | 12.65183 | 23 ft | 13 kts | 359° |
| 2026-05-04 18:10 | 55.62615 | 12.65183 | 25 ft | 12 kts | 9° |
| 2026-05-04 18:10 | 55.62658 | 12.65264 | 27 ft | 7 kts | 67° |
| 2026-05-04 18:10 | 55.62684 | 12.65304 | 23 ft | 3 kts | 20° |
| 2026-05-04 18:10 | 55.62700 | 12.65312 | 23 ft | 2 kts | 17° |
| 2026-05-04 18:11 | 55.62714 | 12.65320 | 23 ft | 2 kts | 17° |
| 2026-05-04 18:11 | 55.62721 | 12.65324 | 23 ft | 0 kts | 17° |
| 2026-05-04 18:11 | 55.62722 | 12.65324 | 23 ft | 1 kts | 17° |
| 2026-05-04 18:11 | 55.62723 | 12.65325 | 23 ft | 0 kts | 17° |